sensor_id;sensor_type;location;lat;lon;timestamp;P1;durP1;ratioP1;P2;durP2;ratioP2
79578;SDS011;69051;52.406;5.280;2023-05-10T00:01:55;44.05;;;20.80;;
79578;SDS011;69051;52.406;5.280;2023-05-10T00:04:22;46.53;;;22.27;;
79578;SDS011;69051;52.406;5.280;2023-05-10T00:06:48;48.72;;;22.13;;
79578;SDS011;69051;52.406;5.280;2023-05-10T00:09:15;48.63;;;22.17;;
79578;SDS011;69051;52.406;5.280;2023-05-10T00:11:41;46.65;;;22.58;;
79578;SDS011;69051;52.406;5.280;2023-05-10T00:14:08;47.58;;;21.85;;
79578;SDS011;69051;52.406;5.280;2023-05-10T00:16:34;46.63;;;22.23;;
79578;SDS011;69051;52.406;5.280;2023-05-10T00:19:00;55.65;;;23.10;;
79578;SDS011;69051;52.406;5.280;2023-05-10T00:21:27;51.85;;;22.35;;
79578;SDS011;69051;52.406;5.280;2023-05-10T00:23:54;49.47;;;21.90;;
79578;SDS011;69051;52.406;5.280;2023-05-10T00:26:21;48.33;;;21.50;;
79578;SDS011;69051;52.406;5.280;2023-05-10T00:28:47;56.08;;;23.52;;
79578;SDS011;69051;52.406;5.280;2023-05-10T00:31:13;50.90;;;22.55;;
79578;SDS011;69051;52.406;5.280;2023-05-10T00:33:40;51.17;;;23.08;;
79578;SDS011;69051;52.406;5.280;2023-05-10T00:36:07;48.28;;;22.65;;
79578;SDS011;69051;52.406;5.280;2023-05-10T00:38:33;54.20;;;23.40;;
79578;SDS011;69051;52.406;5.280;2023-05-10T00:41:00;50.22;;;22.83;;
79578;SDS011;69051;52.406;5.280;2023-05-10T00:43:26;51.40;;;23.15;;
79578;SDS011;69051;52.406;5.280;2023-05-10T00:45:53;54.17;;;22.90;;
79578;SDS011;69051;52.406;5.280;2023-05-10T00:48:19;49.67;;;21.48;;
79578;SDS011;69051;52.406;5.280;2023-05-10T00:50:46;56.42;;;23.08;;
79578;SDS011;69051;52.406;5.280;2023-05-10T00:53:12;46.60;;;21.52;;
79578;SDS011;69051;52.406;5.280;2023-05-10T00:55:39;56.75;;;23.27;;
79578;SDS011;69051;52.406;5.280;2023-05-10T00:58:05;50.10;;;21.90;;
79578;SDS011;69051;52.406;5.280;2023-05-10T01:00:32;58.72;;;24.88;;
79578;SDS011;69051;52.406;5.280;2023-05-10T01:02:59;51.42;;;24.25;;
79578;SDS011;69051;52.406;5.280;2023-05-10T01:05:26;49.70;;;23.92;;
79578;SDS011;69051;52.406;5.280;2023-05-10T01:07:53;56.10;;;24.58;;
79578;SDS011;69051;52.406;5.280;2023-05-10T01:10:19;53.60;;;22.95;;
79578;SDS011;69051;52.406;5.280;2023-05-10T01:12:46;53.58;;;23.23;;
79578;SDS011;69051;52.406;5.280;2023-05-10T01:15:13;56.33;;;22.98;;
79578;SDS011;69051;52.406;5.280;2023-05-10T01:17:42;60.05;;;24.67;;
79578;SDS011;69051;52.406;5.280;2023-05-10T01:20:10;59.67;;;22.90;;
79578;SDS011;69051;52.406;5.280;2023-05-10T01:33:23;75.47;;;28.63;;
79578;SDS011;69051;52.406;5.280;2023-05-10T01:38:32;70.75;;;28.38;;
79578;SDS011;69051;52.406;5.280;2023-05-10T01:46:28;72.15;;;29.25;;
79578;SDS011;69051;52.406;5.280;2023-05-10T01:48:59;68.53;;;28.17;;
79578;SDS011;69051;52.406;5.280;2023-05-10T01:51:27;70.65;;;29.70;;
79578;SDS011;69051;52.406;5.280;2023-05-10T01:53:59;71.15;;;28.15;;
79578;SDS011;69051;52.406;5.280;2023-05-10T01:56:28;72.80;;;29.98;;
79578;SDS011;69051;52.406;5.280;2023-05-10T01:58:56;77.47;;;29.80;;
79578;SDS011;69051;52.406;5.280;2023-05-10T02:01:23;76.75;;;31.10;;
79578;SDS011;69051;52.406;5.280;2023-05-10T02:03:52;66.07;;;29.95;;
79578;SDS011;69051;52.406;5.280;2023-05-10T02:06:20;72.50;;;30.20;;
79578;SDS011;69051;52.406;5.280;2023-05-10T02:08:48;76.78;;;29.70;;
79578;SDS011;69051;52.406;5.280;2023-05-10T02:11:16;77.07;;;32.45;;
79578;SDS011;69051;52.406;5.280;2023-05-10T02:13:44;69.32;;;29.90;;
79578;SDS011;69051;52.406;5.280;2023-05-10T02:16:11;68.97;;;30.13;;
79578;SDS011;69051;52.406;5.280;2023-05-10T02:18:38;73.05;;;29.75;;
79578;SDS011;69051;52.406;5.280;2023-05-10T02:21:07;72.15;;;31.60;;
79578;SDS011;69051;52.406;5.280;2023-05-10T02:23:34;72.00;;;30.67;;
79578;SDS011;69051;52.406;5.280;2023-05-10T02:26:02;79.43;;;31.50;;
79578;SDS011;69051;52.406;5.280;2023-05-10T02:28:28;81.28;;;30.95;;
79578;SDS011;69051;52.406;5.280;2023-05-10T02:30:55;74.10;;;30.77;;
79578;SDS011;69051;52.406;5.280;2023-05-10T02:33:22;78.00;;;30.23;;
79578;SDS011;69051;52.406;5.280;2023-05-10T02:35:48;71.72;;;31.27;;
79578;SDS011;69051;52.406;5.280;2023-05-10T02:38:16;78.85;;;32.60;;
79578;SDS011;69051;52.406;5.280;2023-05-10T02:40:45;82.40;;;33.53;;
79578;SDS011;69051;52.406;5.280;2023-05-10T02:43:13;80.32;;;33.80;;
79578;SDS011;69051;52.406;5.280;2023-05-10T02:45:40;81.40;;;34.38;;
79578;SDS011;69051;52.406;5.280;2023-05-10T02:48:08;79.50;;;34.30;;
79578;SDS011;69051;52.406;5.280;2023-05-10T02:50:35;82.18;;;34.10;;
79578;SDS011;69051;52.406;5.280;2023-05-10T02:53:05;78.50;;;33.65;;
79578;SDS011;69051;52.406;5.280;2023-05-10T02:55:38;80.43;;;32.90;;
79578;SDS011;69051;52.406;5.280;2023-05-10T02:58:05;78.28;;;34.47;;
79578;SDS011;69051;52.406;5.280;2023-05-10T03:00:32;80.13;;;34.53;;
79578;SDS011;69051;52.406;5.280;2023-05-10T03:02:58;85.43;;;34.53;;
79578;SDS011;69051;52.406;5.280;2023-05-10T03:05:25;77.97;;;34.08;;
79578;SDS011;69051;52.406;5.280;2023-05-10T03:07:51;86.63;;;34.20;;
79578;SDS011;69051;52.406;5.280;2023-05-10T03:10:18;82.70;;;35.30;;
79578;SDS011;69051;52.406;5.280;2023-05-10T03:12:52;82.22;;;33.80;;
79578;SDS011;69051;52.406;5.280;2023-05-10T03:18:18;85.20;;;34.30;;
79578;SDS011;69051;52.406;5.280;2023-05-10T03:20:49;70.38;;;31.05;;
79578;SDS011;69051;52.406;5.280;2023-05-10T03:25:46;81.72;;;34.28;;
79578;SDS011;69051;52.406;5.280;2023-05-10T03:28:14;85.78;;;33.95;;
79578;SDS011;69051;52.406;5.280;2023-05-10T03:30:42;89.85;;;32.33;;
79578;SDS011;69051;52.406;5.280;2023-05-10T03:33:09;91.40;;;34.92;;
79578;SDS011;69051;52.406;5.280;2023-05-10T03:35:36;90.60;;;35.33;;
79578;SDS011;69051;52.406;5.280;2023-05-10T03:38:03;92.03;;;35.60;;
79578;SDS011;69051;52.406;5.280;2023-05-10T03:40:29;92.10;;;36.60;;
79578;SDS011;69051;52.406;5.280;2023-05-10T03:42:58;94.75;;;37.35;;
79578;SDS011;69051;52.406;5.280;2023-05-10T03:45:25;88.35;;;33.63;;
79578;SDS011;69051;52.406;5.280;2023-05-10T03:47:51;91.30;;;36.08;;
79578;SDS011;69051;52.406;5.280;2023-05-10T03:50:18;100.05;;;36.25;;
79578;SDS011;69051;52.406;5.280;2023-05-10T03:52:44;83.68;;;32.05;;
79578;SDS011;69051;52.406;5.280;2023-05-10T03:55:11;98.63;;;35.97;;
79578;SDS011;69051;52.406;5.280;2023-05-10T03:57:37;78.97;;;33.03;;
79578;SDS011;69051;52.406;5.280;2023-05-10T04:00:04;80.28;;;32.53;;
79578;SDS011;69051;52.406;5.280;2023-05-10T04:02:31;84.82;;;33.95;;
79578;SDS011;69051;52.406;5.280;2023-05-10T04:04:58;77.85;;;31.80;;
79578;SDS011;69051;52.406;5.280;2023-05-10T04:07:24;69.90;;;29.52;;
79578;SDS011;69051;52.406;5.280;2023-05-10T04:09:50;64.88;;;27.38;;
79578;SDS011;69051;52.406;5.280;2023-05-10T04:12:17;66.68;;;26.02;;
79578;SDS011;69051;52.406;5.280;2023-05-10T04:14:43;72.78;;;26.70;;
79578;SDS011;69051;52.406;5.280;2023-05-10T04:17:10;64.93;;;23.35;;
79578;SDS011;69051;52.406;5.280;2023-05-10T04:19:36;63.28;;;25.42;;
79578;SDS011;69051;52.406;5.280;2023-05-10T04:22:03;71.85;;;25.17;;
79578;SDS011;69051;52.406;5.280;2023-05-10T04:24:29;72.82;;;27.35;;
79578;SDS011;69051;52.406;5.280;2023-05-10T04:26:56;62.67;;;24.85;;
79578;SDS011;69051;52.406;5.280;2023-05-10T04:29:23;61.35;;;23.45;;
79578;SDS011;69051;52.406;5.280;2023-05-10T04:31:49;60.38;;;23.25;;
79578;SDS011;69051;52.406;5.280;2023-05-10T04:34:17;56.10;;;22.33;;
79578;SDS011;69051;52.406;5.280;2023-05-10T04:36:43;46.55;;;18.73;;
79578;SDS011;69051;52.406;5.280;2023-05-10T04:39:09;50.65;;;19.25;;
79578;SDS011;69051;52.406;5.280;2023-05-10T04:41:37;52.58;;;20.60;;
79578;SDS011;69051;52.406;5.280;2023-05-10T04:44:04;48.65;;;18.33;;
79578;SDS011;69051;52.406;5.280;2023-05-10T04:46:30;47.67;;;19.92;;
79578;SDS011;69051;52.406;5.280;2023-05-10T04:48:57;45.15;;;18.17;;
79578;SDS011;69051;52.406;5.280;2023-05-10T04:51:23;43.78;;;16.35;;
79578;SDS011;69051;52.406;5.280;2023-05-10T04:53:50;38.47;;;15.70;;
79578;SDS011;69051;52.406;5.280;2023-05-10T04:56:31;44.75;;;16.50;;
79578;SDS011;69051;52.406;5.280;2023-05-10T04:58:57;35.70;;;14.30;;
79578;SDS011;69051;52.406;5.280;2023-05-10T05:01:24;33.55;;;13.75;;
79578;SDS011;69051;52.406;5.280;2023-05-10T05:03:50;38.55;;;14.98;;
79578;SDS011;69051;52.406;5.280;2023-05-10T05:06:19;40.22;;;15.38;;
79578;SDS011;69051;52.406;5.280;2023-05-10T05:08:46;37.35;;;14.38;;
79578;SDS011;69051;52.406;5.280;2023-05-10T05:11:15;30.88;;;13.02;;
79578;SDS011;69051;52.406;5.280;2023-05-10T05:13:41;35.58;;;13.25;;
79578;SDS011;69051;52.406;5.280;2023-05-10T05:16:08;28.80;;;12.50;;
79578;SDS011;69051;52.406;5.280;2023-05-10T05:18:34;25.75;;;11.23;;
79578;SDS011;69051;52.406;5.280;2023-05-10T05:21:00;29.13;;;12.23;;
79578;SDS011;69051;52.406;5.280;2023-05-10T05:23:27;24.95;;;10.65;;
79578;SDS011;69051;52.406;5.280;2023-05-10T05:25:53;27.92;;;10.55;;
79578;SDS011;69051;52.406;5.280;2023-05-10T05:28:20;23.55;;;10.77;;
79578;SDS011;69051;52.406;5.280;2023-05-10T05:30:47;25.42;;;10.60;;
79578;SDS011;69051;52.406;5.280;2023-05-10T05:33:13;24.23;;;10.13;;
79578;SDS011;69051;52.406;5.280;2023-05-10T05:35:41;25.02;;;10.25;;
79578;SDS011;69051;52.406;5.280;2023-05-10T05:38:10;26.95;;;10.77;;
79578;SDS011;69051;52.406;5.280;2023-05-10T05:40:37;25.98;;;10.65;;
79578;SDS011;69051;52.406;5.280;2023-05-10T05:43:03;27.15;;;10.35;;
79578;SDS011;69051;52.406;5.280;2023-05-10T05:45:30;27.13;;;11.20;;
79578;SDS011;69051;52.406;5.280;2023-05-10T05:47:56;31.05;;;11.68;;
79578;SDS011;69051;52.406;5.280;2023-05-10T05:50:22;27.50;;;10.73;;
79578;SDS011;69051;52.406;5.280;2023-05-10T05:52:49;22.48;;;9.88;;
79578;SDS011;69051;52.406;5.280;2023-05-10T05:55:16;21.45;;;10.00;;
79578;SDS011;69051;52.406;5.280;2023-05-10T05:57:42;22.92;;;9.73;;
79578;SDS011;69051;52.406;5.280;2023-05-10T06:00:09;21.38;;;9.77;;
79578;SDS011;69051;52.406;5.280;2023-05-10T06:02:36;26.15;;;11.10;;
79578;SDS011;69051;52.406;5.280;2023-05-10T06:05:03;25.40;;;11.57;;
79578;SDS011;69051;52.406;5.280;2023-05-10T06:07:29;26.60;;;10.73;;
79578;SDS011;69051;52.406;5.280;2023-05-10T06:09:56;23.23;;;10.65;;
79578;SDS011;69051;52.406;5.280;2023-05-10T06:12:22;25.65;;;11.35;;
79578;SDS011;69051;52.406;5.280;2023-05-10T06:14:48;33.05;;;11.68;;
79578;SDS011;69051;52.406;5.280;2023-05-10T06:17:15;26.65;;;11.40;;
79578;SDS011;69051;52.406;5.280;2023-05-10T06:19:41;20.10;;;9.68;;
79578;SDS011;69051;52.406;5.280;2023-05-10T06:22:08;23.40;;;10.68;;
79578;SDS011;69051;52.406;5.280;2023-05-10T06:24:34;24.58;;;10.82;;
79578;SDS011;69051;52.406;5.280;2023-05-10T06:27:01;23.40;;;9.60;;
79578;SDS011;69051;52.406;5.280;2023-05-10T06:29:27;25.05;;;10.38;;
79578;SDS011;69051;52.406;5.280;2023-05-10T06:31:54;21.27;;;10.18;;
79578;SDS011;69051;52.406;5.280;2023-05-10T06:34:21;24.73;;;11.07;;
79578;SDS011;69051;52.406;5.280;2023-05-10T06:36:47;20.85;;;9.95;;
79578;SDS011;69051;52.406;5.280;2023-05-10T06:39:13;23.42;;;9.85;;
79578;SDS011;69051;52.406;5.280;2023-05-10T06:41:40;22.48;;;10.48;;
79578;SDS011;69051;52.406;5.280;2023-05-10T06:44:06;24.77;;;10.40;;
79578;SDS011;69051;52.406;5.280;2023-05-10T06:46:33;20.67;;;10.27;;
79578;SDS011;69051;52.406;5.280;2023-05-10T06:48:59;20.42;;;10.60;;
79578;SDS011;69051;52.406;5.280;2023-05-10T06:51:25;24.95;;;11.05;;
79578;SDS011;69051;52.406;5.280;2023-05-10T06:53:52;27.38;;;10.73;;
79578;SDS011;69051;52.406;5.280;2023-05-10T06:56:18;24.60;;;11.35;;
79578;SDS011;69051;52.406;5.280;2023-05-10T06:58:47;26.58;;;10.93;;
79578;SDS011;69051;52.406;5.280;2023-05-10T07:01:14;27.63;;;11.25;;
79578;SDS011;69051;52.406;5.280;2023-05-10T07:03:41;23.80;;;10.20;;
79578;SDS011;69051;52.406;5.280;2023-05-10T07:06:07;20.15;;;9.90;;
79578;SDS011;69051;52.406;5.280;2023-05-10T07:08:47;23.10;;;10.70;;
79578;SDS011;69051;52.406;5.280;2023-05-10T07:11:13;21.98;;;9.88;;
79578;SDS011;69051;52.406;5.280;2023-05-10T07:13:39;22.58;;;10.10;;
79578;SDS011;69051;52.406;5.280;2023-05-10T07:16:10;22.05;;;10.15;;
79578;SDS011;69051;52.406;5.280;2023-05-10T07:18:36;25.88;;;10.20;;
79578;SDS011;69051;52.406;5.280;2023-05-10T07:21:03;18.55;;;8.73;;
79578;SDS011;69051;52.406;5.280;2023-05-10T07:23:29;19.08;;;8.75;;
79578;SDS011;69051;52.406;5.280;2023-05-10T07:25:56;23.42;;;9.90;;
79578;SDS011;69051;52.406;5.280;2023-05-10T07:28:23;20.27;;;9.45;;
79578;SDS011;69051;52.406;5.280;2023-05-10T07:30:52;25.40;;;9.13;;
79578;SDS011;69051;52.406;5.280;2023-05-10T07:33:19;21.10;;;9.10;;
79578;SDS011;69051;52.406;5.280;2023-05-10T07:35:46;18.17;;;8.20;;
79578;SDS011;69051;52.406;5.280;2023-05-10T07:38:12;21.17;;;8.00;;
79578;SDS011;69051;52.406;5.280;2023-05-10T07:40:39;16.80;;;8.93;;
79578;SDS011;69051;52.406;5.280;2023-05-10T07:43:05;21.30;;;8.77;;
79578;SDS011;69051;52.406;5.280;2023-05-10T07:45:33;23.52;;;9.18;;
79578;SDS011;69051;52.406;5.280;2023-05-10T07:47:59;18.95;;;8.80;;
79578;SDS011;69051;52.406;5.280;2023-05-10T07:50:26;22.05;;;8.85;;
79578;SDS011;69051;52.406;5.280;2023-05-10T07:52:53;16.20;;;7.97;;
79578;SDS011;69051;52.406;5.280;2023-05-10T07:55:19;19.23;;;8.70;;
79578;SDS011;69051;52.406;5.280;2023-05-10T07:57:47;17.33;;;7.72;;
79578;SDS011;69051;52.406;5.280;2023-05-10T08:00:16;18.65;;;8.05;;
79578;SDS011;69051;52.406;5.280;2023-05-10T08:02:44;19.50;;;7.93;;
79578;SDS011;69051;52.406;5.280;2023-05-10T08:05:11;18.20;;;8.18;;
79578;SDS011;69051;52.406;5.280;2023-05-10T08:07:37;16.65;;;8.02;;
79578;SDS011;69051;52.406;5.280;2023-05-10T08:10:04;18.80;;;7.80;;
79578;SDS011;69051;52.406;5.280;2023-05-10T08:12:31;16.33;;;7.80;;
79578;SDS011;69051;52.406;5.280;2023-05-10T08:14:57;20.80;;;8.10;;
79578;SDS011;69051;52.406;5.280;2023-05-10T08:17:24;16.77;;;8.13;;
79578;SDS011;69051;52.406;5.280;2023-05-10T08:19:50;19.35;;;8.90;;
79578;SDS011;69051;52.406;5.280;2023-05-10T08:22:17;19.85;;;9.20;;
79578;SDS011;69051;52.406;5.280;2023-05-10T08:24:43;20.35;;;8.43;;
79578;SDS011;69051;52.406;5.280;2023-05-10T08:27:10;18.30;;;7.93;;
79578;SDS011;69051;52.406;5.280;2023-05-10T08:29:36;16.48;;;8.15;;
79578;SDS011;69051;52.406;5.280;2023-05-10T08:34:41;17.08;;;7.93;;
79578;SDS011;69051;52.406;5.280;2023-05-10T08:37:07;15.93;;;7.80;;
79578;SDS011;69051;52.406;5.280;2023-05-10T08:39:34;16.08;;;8.55;;
79578;SDS011;69051;52.406;5.280;2023-05-10T08:42:02;22.13;;;9.70;;
79578;SDS011;69051;52.406;5.280;2023-05-10T08:44:34;20.48;;;9.18;;
79578;SDS011;69051;52.406;5.280;2023-05-10T08:47:05;21.35;;;9.05;;
79578;SDS011;69051;52.406;5.280;2023-05-10T08:49:33;20.73;;;8.52;;
79578;SDS011;69051;52.406;5.280;2023-05-10T08:52:01;16.65;;;7.95;;
79578;SDS011;69051;52.406;5.280;2023-05-10T08:54:30;15.75;;;8.20;;
79578;SDS011;69051;52.406;5.280;2023-05-10T08:56:57;18.33;;;8.10;;
79578;SDS011;69051;52.406;5.280;2023-05-10T08:59:24;17.00;;;8.40;;
79578;SDS011;69051;52.406;5.280;2023-05-10T09:01:52;20.73;;;9.38;;
79578;SDS011;69051;52.406;5.280;2023-05-10T09:04:20;19.00;;;8.70;;
79578;SDS011;69051;52.406;5.280;2023-05-10T09:06:47;23.58;;;10.07;;
79578;SDS011;69051;52.406;5.280;2023-05-10T09:09:13;24.90;;;11.27;;
79578;SDS011;69051;52.406;5.280;2023-05-10T09:11:40;19.65;;;11.07;;
79578;SDS011;69051;52.406;5.280;2023-05-10T09:14:07;21.58;;;9.30;;
79578;SDS011;69051;52.406;5.280;2023-05-10T09:16:35;17.13;;;9.25;;
79578;SDS011;69051;52.406;5.280;2023-05-10T09:19:02;20.25;;;11.20;;
79578;SDS011;69051;52.406;5.280;2023-05-10T09:21:29;20.77;;;10.60;;
79578;SDS011;69051;52.406;5.280;2023-05-10T09:23:57;18.83;;;10.27;;
79578;SDS011;69051;52.406;5.280;2023-05-10T09:26:29;16.60;;;10.30;;
79578;SDS011;69051;52.406;5.280;2023-05-10T09:28:56;17.98;;;9.98;;
79578;SDS011;69051;52.406;5.280;2023-05-10T09:31:23;20.02;;;9.57;;
79578;SDS011;69051;52.406;5.280;2023-05-10T09:33:53;19.92;;;10.35;;
79578;SDS011;69051;52.406;5.280;2023-05-10T09:36:20;18.73;;;9.63;;
79578;SDS011;69051;52.406;5.280;2023-05-10T09:38:50;20.00;;;11.73;;
79578;SDS011;69051;52.406;5.280;2023-05-10T09:41:21;21.70;;;12.02;;
79578;SDS011;69051;52.406;5.280;2023-05-10T09:43:48;19.13;;;10.55;;
79578;SDS011;69051;52.406;5.280;2023-05-10T09:46:15;20.27;;;10.38;;
79578;SDS011;69051;52.406;5.280;2023-05-10T09:48:43;19.33;;;10.82;;
79578;SDS011;69051;52.406;5.280;2023-05-10T09:51:15;19.70;;;11.48;;
79578;SDS011;69051;52.406;5.280;2023-05-10T09:53:45;21.27;;;12.25;;
79578;SDS011;69051;52.406;5.280;2023-05-10T09:56:11;20.92;;;11.52;;
79578;SDS011;69051;52.406;5.280;2023-05-10T09:58:38;22.00;;;12.85;;
79578;SDS011;69051;52.406;5.280;2023-05-10T10:01:05;23.42;;;12.52;;
79578;SDS011;69051;52.406;5.280;2023-05-10T10:03:41;22.00;;;12.38;;
79578;SDS011;69051;52.406;5.280;2023-05-10T10:06:08;19.92;;;13.32;;
79578;SDS011;69051;52.406;5.280;2023-05-10T10:08:47;21.25;;;12.25;;
79578;SDS011;69051;52.406;5.280;2023-05-10T10:11:14;20.83;;;12.05;;
79578;SDS011;69051;52.406;5.280;2023-05-10T10:13:40;18.40;;;11.43;;
79578;SDS011;69051;52.406;5.280;2023-05-10T10:16:07;25.48;;;12.80;;
79578;SDS011;69051;52.406;5.280;2023-05-10T10:18:35;18.10;;;11.73;;
79578;SDS011;69051;52.406;5.280;2023-05-10T10:21:07;15.57;;;10.07;;
79578;SDS011;69051;52.406;5.280;2023-05-10T10:23:36;18.33;;;11.02;;
79578;SDS011;69051;52.406;5.280;2023-05-10T10:26:03;16.35;;;9.68;;
79578;SDS011;69051;52.406;5.280;2023-05-10T10:34:06;15.75;;;8.98;;
79578;SDS011;69051;52.406;5.280;2023-05-10T10:36:39;14.70;;;8.90;;
79578;SDS011;69051;52.406;5.280;2023-05-10T10:39:08;17.33;;;8.80;;
79578;SDS011;69051;52.406;5.280;2023-05-10T10:41:36;15.68;;;8.90;;
79578;SDS011;69051;52.406;5.280;2023-05-10T10:47:02;14.57;;;8.55;;
79578;SDS011;69051;52.406;5.280;2023-05-10T10:49:32;18.48;;;9.50;;
79578;SDS011;69051;52.406;5.280;2023-05-10T10:52:21;15.77;;;8.48;;
79578;SDS011;69051;52.406;5.280;2023-05-10T10:55:02;13.80;;;7.80;;
79578;SDS011;69051;52.406;5.280;2023-05-10T11:00:20;19.52;;;9.25;;
79578;SDS011;69051;52.406;5.280;2023-05-10T11:02:48;12.25;;;6.78;;
79578;SDS011;69051;52.406;5.280;2023-05-10T11:08:00;13.63;;;7.80;;
79578;SDS011;69051;52.406;5.280;2023-05-10T11:10:27;13.60;;;7.22;;
79578;SDS011;69051;52.406;5.280;2023-05-10T11:13:07;15.02;;;8.30;;
79578;SDS011;69051;52.406;5.280;2023-05-10T11:15:38;13.55;;;7.55;;
79578;SDS011;69051;52.406;5.280;2023-05-10T11:18:23;13.60;;;7.28;;
79578;SDS011;69051;52.406;5.280;2023-05-10T11:20:51;15.05;;;7.80;;
79578;SDS011;69051;52.406;5.280;2023-05-10T11:23:18;12.35;;;6.75;;
79578;SDS011;69051;52.406;5.280;2023-05-10T11:25:45;12.00;;;6.40;;
79578;SDS011;69051;52.406;5.280;2023-05-10T11:28:12;12.90;;;6.40;;
79578;SDS011;69051;52.406;5.280;2023-05-10T11:30:39;12.98;;;6.70;;
79578;SDS011;69051;52.406;5.280;2023-05-10T11:33:07;15.20;;;6.97;;
79578;SDS011;69051;52.406;5.280;2023-05-10T11:35:37;14.70;;;7.05;;
79578;SDS011;69051;52.406;5.280;2023-05-10T11:38:09;14.15;;;6.10;;
79578;SDS011;69051;52.406;5.280;2023-05-10T11:40:36;13.40;;;6.07;;
79578;SDS011;69051;52.406;5.280;2023-05-10T11:43:03;12.93;;;6.10;;
79578;SDS011;69051;52.406;5.280;2023-05-10T11:45:33;15.65;;;5.97;;
79578;SDS011;69051;52.406;5.280;2023-05-10T11:48:00;17.77;;;6.45;;
79578;SDS011;69051;52.406;5.280;2023-05-10T11:50:27;18.30;;;7.82;;
79578;SDS011;69051;52.406;5.280;2023-05-10T11:52:57;12.88;;;7.10;;
79578;SDS011;69051;52.406;5.280;2023-05-10T11:55:24;16.00;;;7.45;;
79578;SDS011;69051;52.406;5.280;2023-05-10T11:57:51;16.85;;;7.50;;
79578;SDS011;69051;52.406;5.280;2023-05-10T12:00:19;15.27;;;6.72;;
79578;SDS011;69051;52.406;5.280;2023-05-10T12:02:46;14.10;;;7.25;;
79578;SDS011;69051;52.406;5.280;2023-05-10T12:05:12;18.35;;;8.05;;
79578;SDS011;69051;52.406;5.280;2023-05-10T12:07:39;15.45;;;7.72;;
79578;SDS011;69051;52.406;5.280;2023-05-10T12:10:06;17.30;;;8.43;;
79578;SDS011;69051;52.406;5.280;2023-05-10T12:12:43;14.98;;;8.18;;
79578;SDS011;69051;52.406;5.280;2023-05-10T12:15:23;17.30;;;8.85;;
79578;SDS011;69051;52.406;5.280;2023-05-10T12:17:50;16.15;;;8.65;;
79578;SDS011;69051;52.406;5.280;2023-05-10T12:20:18;15.90;;;8.55;;
79578;SDS011;69051;52.406;5.280;2023-05-10T12:22:51;15.73;;;8.05;;
79578;SDS011;69051;52.406;5.280;2023-05-10T12:25:19;16.83;;;9.10;;
79578;SDS011;69051;52.406;5.280;2023-05-10T12:27:47;15.85;;;9.27;;
79578;SDS011;69051;52.406;5.280;2023-05-10T12:30:18;17.98;;;9.77;;
79578;SDS011;69051;52.406;5.280;2023-05-10T12:32:46;16.95;;;9.55;;
79578;SDS011;69051;52.406;5.280;2023-05-10T12:35:12;16.88;;;10.10;;
79578;SDS011;69051;52.406;5.280;2023-05-10T12:37:38;22.20;;;10.50;;
79578;SDS011;69051;52.406;5.280;2023-05-10T12:40:06;13.02;;;6.82;;
79578;SDS011;69051;52.406;5.280;2023-05-10T12:42:34;14.65;;;6.72;;
79578;SDS011;69051;52.406;5.280;2023-05-10T12:45:02;15.05;;;6.82;;
79578;SDS011;69051;52.406;5.280;2023-05-10T12:47:29;11.60;;;5.40;;
79578;SDS011;69051;52.406;5.280;2023-05-10T12:49:56;11.68;;;5.13;;
79578;SDS011;69051;52.406;5.280;2023-05-10T12:52:23;10.25;;;5.03;;
79578;SDS011;69051;52.406;5.280;2023-05-10T12:54:50;12.32;;;4.97;;
79578;SDS011;69051;52.406;5.280;2023-05-10T12:57:16;10.05;;;4.88;;
79578;SDS011;69051;52.406;5.280;2023-05-10T12:59:43;13.35;;;5.50;;
79578;SDS011;69051;52.406;5.280;2023-05-10T13:02:09;12.77;;;6.40;;
79578;SDS011;69051;52.406;5.280;2023-05-10T13:04:36;11.50;;;6.43;;
79578;SDS011;69051;52.406;5.280;2023-05-10T13:07:08;11.85;;;5.50;;
79578;SDS011;69051;52.406;5.280;2023-05-10T13:09:35;12.77;;;6.45;;
79578;SDS011;69051;52.406;5.280;2023-05-10T13:12:02;13.18;;;6.55;;
79578;SDS011;69051;52.406;5.280;2023-05-10T13:14:28;14.55;;;6.03;;
79578;SDS011;69051;52.406;5.280;2023-05-10T13:16:55;14.65;;;5.97;;
79578;SDS011;69051;52.406;5.280;2023-05-10T13:19:21;15.05;;;7.18;;
79578;SDS011;69051;52.406;5.280;2023-05-10T13:21:48;17.27;;;7.03;;
79578;SDS011;69051;52.406;5.280;2023-05-10T13:24:14;16.30;;;8.20;;
79578;SDS011;69051;52.406;5.280;2023-05-10T13:26:41;13.00;;;7.22;;
79578;SDS011;69051;52.406;5.280;2023-05-10T13:29:07;20.42;;;8.55;;
79578;SDS011;69051;52.406;5.280;2023-05-10T13:31:34;16.27;;;7.90;;
79578;SDS011;69051;52.406;5.280;2023-05-10T13:34:01;16.02;;;7.82;;
79578;SDS011;69051;52.406;5.280;2023-05-10T13:36:28;15.35;;;7.68;;
79578;SDS011;69051;52.406;5.280;2023-05-10T13:38:54;14.75;;;7.70;;
79578;SDS011;69051;52.406;5.280;2023-05-10T13:41:21;16.80;;;7.72;;
79578;SDS011;69051;52.406;5.280;2023-05-10T13:43:47;16.23;;;8.38;;
79578;SDS011;69051;52.406;5.280;2023-05-10T13:46:15;17.63;;;8.45;;
79578;SDS011;69051;52.406;5.280;2023-05-10T13:48:41;20.15;;;8.77;;
79578;SDS011;69051;52.406;5.280;2023-05-10T13:51:08;15.98;;;7.85;;
79578;SDS011;69051;52.406;5.280;2023-05-10T13:53:34;17.45;;;8.80;;
79578;SDS011;69051;52.406;5.280;2023-05-10T13:56:00;16.02;;;8.10;;
79578;SDS011;69051;52.406;5.280;2023-05-10T13:58:28;18.17;;;7.80;;
79578;SDS011;69051;52.406;5.280;2023-05-10T14:00:55;20.17;;;8.82;;
79578;SDS011;69051;52.406;5.280;2023-05-10T14:03:21;18.35;;;8.93;;
79578;SDS011;69051;52.406;5.280;2023-05-10T14:05:48;17.98;;;8.13;;
79578;SDS011;69051;52.406;5.280;2023-05-10T14:08:14;17.45;;;7.35;;
79578;SDS011;69051;52.406;5.280;2023-05-10T14:10:41;15.73;;;8.15;;
79578;SDS011;69051;52.406;5.280;2023-05-10T14:13:08;14.00;;;6.85;;
79578;SDS011;69051;52.406;5.280;2023-05-10T14:15:34;14.00;;;7.13;;
79578;SDS011;69051;52.406;5.280;2023-05-10T14:18:00;14.45;;;6.25;;
79578;SDS011;69051;52.406;5.280;2023-05-10T14:20:27;14.63;;;6.38;;
79578;SDS011;69051;52.406;5.280;2023-05-10T14:22:54;15.25;;;8.02;;
79578;SDS011;69051;52.406;5.280;2023-05-10T14:25:20;13.73;;;7.13;;
79578;SDS011;69051;52.406;5.280;2023-05-10T14:27:47;13.50;;;6.75;;
79578;SDS011;69051;52.406;5.280;2023-05-10T14:30:14;14.23;;;6.93;;
79578;SDS011;69051;52.406;5.280;2023-05-10T14:32:40;15.00;;;7.22;;
79578;SDS011;69051;52.406;5.280;2023-05-10T14:35:07;16.58;;;7.22;;
79578;SDS011;69051;52.406;5.280;2023-05-10T14:37:38;16.92;;;7.03;;
79578;SDS011;69051;52.406;5.280;2023-05-10T14:40:05;9.27;;;4.65;;
79578;SDS011;69051;52.406;5.280;2023-05-10T14:42:32;10.55;;;4.80;;
79578;SDS011;69051;52.406;5.280;2023-05-10T14:44:58;10.25;;;4.72;;
79578;SDS011;69051;52.406;5.280;2023-05-10T14:47:25;10.35;;;4.80;;
79578;SDS011;69051;52.406;5.280;2023-05-10T14:49:51;10.50;;;4.85;;
79578;SDS011;69051;52.406;5.280;2023-05-10T14:52:18;15.10;;;6.82;;
79578;SDS011;69051;52.406;5.280;2023-05-10T14:54:44;17.17;;;8.55;;
79578;SDS011;69051;52.406;5.280;2023-05-10T14:57:11;20.92;;;10.88;;
79578;SDS011;69051;52.406;5.280;2023-05-10T14:59:37;17.00;;;9.45;;
79578;SDS011;69051;52.406;5.280;2023-05-10T15:02:04;20.35;;;9.32;;
79578;SDS011;69051;52.406;5.280;2023-05-10T15:04:31;16.30;;;9.02;;
79578;SDS011;69051;52.406;5.280;2023-05-10T15:06:58;16.30;;;8.13;;
79578;SDS011;69051;52.406;5.280;2023-05-10T15:09:25;16.65;;;9.05;;
79578;SDS011;69051;52.406;5.280;2023-05-10T15:11:53;16.27;;;8.30;;